Time;durP1;ratioP1;P1;durP2;ratioP2;P2;SDS_P1;SDS_P2;PMS_P1;PMS_P2;Temp;Humidity;BMP_temperature;BMP_pressure;BME280_temperature;BME280_humidity;BME280_pressure;Samples;Min_cycle;Max_cycle;Signal;HPM_P1;HPM_P2
2023/12/06 00:00:19;;;;;;;;;;;1.50;99.90;;;;;;5011673;28;19941;-67
2023/12/06 00:02:45;;;;;;;;;;;1.50;99.90;;;;;;5011050;28;19933;-68
2023/12/06 00:05:11;;;;;;;;;;;1.50;99.90;;;;;;4989373;28;19991;-67
2023/12/06 00:07:37;;;;;;;;;;;1.50;99.90;;;;;;5010691;28;20401;-68
2023/12/06 00:10:03;;;;;;;;;;;1.50;99.90;;;;;;5015136;28;20021;-67
2023/12/06 00:12:28;;;;;;;;;;;1.60;99.90;;;;;;4995913;28;19937;-68
2023/12/06 00:14:54;;;;;;;;;;;1.50;99.90;;;;;;5007182;28;19957;-67
2023/12/06 00:17:19;;;;;;;;;;;1.60;99.90;;;;;;4994398;28;20556;-68
2023/12/06 00:19:45;;;;;;;;;;;1.60;99.90;;;;;;4975086;28;19929;-68
2023/12/06 00:22:10;;;;;;;;;;;1.60;99.90;;;;;;4994491;28;19931;-68
2023/12/06 00:24:37;;;;;;;;;;;1.70;99.90;;;;;;4995418;28;19971;-68
2023/12/06 00:27:02;;;;;;;;;;;1.70;99.90;;;;;;4991727;28;20016;-68
2023/12/06 00:29:28;;;;;;;;;;;1.70;99.90;;;;;;4994500;28;20021;-68
2023/12/06 00:31:53;;;;;;;;;;;1.80;99.90;;;;;;4976416;28;19964;-69
2023/12/06 00:34:19;;;;;;;;;;;1.80;99.90;;;;;;4993389;28;20016;-68
2023/12/06 00:36:44;;;;;;;;;;;1.80;99.90;;;;;;4992941;28;19948;-68
2023/12/06 00:39:13;;;;;;;;;;;1.80;99.90;;;;;;5011585;28;20344;-68
2023/12/06 00:41:39;;;;;;;;;;;1.80;99.90;;;;;;5013689;28;19975;-68
2023/12/06 00:44:05;;;;;;;;;;;1.80;99.90;;;;;;4992745;28;19963;-68
2023/12/06 00:46:30;;;;;;;;;;;1.80;99.90;;;;;;4993092;28;21278;-69
2023/12/06 00:48:58;;;;;;;;;;;1.80;99.90;;;;;;4982561;28;20340;-70
2023/12/06 00:51:24;;;;;;;;;;;1.80;99.90;;;;;;4992206;28;19925;-69
2023/12/06 00:53:49;;;;;;;;;;;1.80;99.90;;;;;;4988661;28;20424;-69
2023/12/06 00:56:15;;;;;;;;;;;1.80;99.90;;;;;;4990738;28;19932;-69
2023/12/06 00:58:42;;;;;;;;;;;1.80;99.90;;;;;;5003711;28;19950;-69
2023/12/06 01:01:07;;;;;;;;;;;1.80;99.90;;;;;;4995230;28;19939;-68
2023/12/06 01:03:33;;;;;;;;;;;1.80;99.90;;;;;;5007006;28;19929;-69
2023/12/06 01:05:58;;;;;;;;;;;1.80;99.90;;;;;;4991447;28;20016;-69
2023/12/06 01:08:25;;;;;;;;;;;1.80;99.90;;;;;;4992689;28;20023;-68
2023/12/06 01:10:51;;;;;;;;;;;1.80;99.90;;;;;;4990689;28;20040;-68
2023/12/06 01:13:17;;;;;;;;;;;1.70;99.90;;;;;;4993325;28;20032;-69
2023/12/06 01:15:43;;;;;;;;;;;1.70;99.90;;;;;;5011745;28;19952;-69
2023/12/06 01:18:08;;;;;;;;;;;1.70;99.90;;;;;;5012470;28;20380;-68
2023/12/06 01:20:34;;;;;;;;;;;1.70;99.90;;;;;;5011277;28;19925;-68
2023/12/06 01:22:59;;;;;;;;;;;1.70;99.90;;;;;;5010343;28;20304;-68
2023/12/06 01:25:25;;;;;;;;;;;1.70;99.90;;;;;;4973797;28;19929;-67
2023/12/06 01:27:50;;;;;;;;;;;1.70;99.90;;;;;;5007389;28;20413;-68
2023/12/06 01:30:16;;;;;;;;;;;1.80;99.90;;;;;;5010278;28;19929;-68
2023/12/06 01:32:41;;;;;;;;;;;1.70;99.90;;;;;;5010913;28;19944;-67
2023/12/06 01:35:07;;;;;;;;;;;1.70;99.90;;;;;;5007357;28;19949;-67
2023/12/06 01:37:33;;;;;;;;;;;1.70;99.90;;;;;;4997285;28;20024;-67
2023/12/06 01:39:58;;;;;;;;;;;1.80;99.90;;;;;;4991994;28;19926;-67
2023/12/06 01:42:24;;;;;;;;;;;1.80;99.90;;;;;;4994631;28;19933;-68
2023/12/06 01:44:49;;;;;;;;;;;1.80;99.90;;;;;;4990762;28;20485;-68
2023/12/06 01:47:19;;;;;;;;;;;1.80;99.90;;;;;;5007485;28;19932;-68
2023/12/06 01:49:45;;;;;;;;;;;1.80;99.90;;;;;;4993343;28;19972;-68
2023/12/06 01:52:11;;;;;;;;;;;1.80;99.90;;;;;;5009955;28;19948;-68
2023/12/06 01:54:36;;;;;;;;;;;1.80;99.90;;;;;;4994165;28;19930;-68
2023/12/06 01:57:02;;;;;;;;;;;1.80;99.90;;;;;;5008064;28;20341;-70
2023/12/06 01:59:28;;;;;;;;;;;1.80;99.90;;;;;;4976133;28;20007;-67
2023/12/06 02:01:53;;;;;;;;;;;1.80;99.90;;;;;;4994025;28;19933;-68
2023/12/06 02:04:19;;;;;;;;;;;1.80;99.90;;;;;;4989623;28;19926;-67
2023/12/06 02:06:45;;;;;;;;;;;1.80;99.90;;;;;;4988733;28;20012;-68
2023/12/06 02:09:12;;;;;;;;;;;1.90;99.90;;;;;;5010061;28;19926;-68
2023/12/06 02:11:38;;;;;;;;;;;1.80;99.90;;;;;;4990136;28;19933;-67
2023/12/06 02:14:03;;;;;;;;;;;1.90;99.90;;;;;;4971837;28;20343;-67
2023/12/06 02:16:29;;;;;;;;;;;1.80;99.90;;;;;;4988598;28;19934;-67
2023/12/06 02:18:55;;;;;;;;;;;1.90;99.90;;;;;;4992039;28;20012;-68
2023/12/06 02:21:21;;;;;;;;;;;1.90;99.90;;;;;;5011943;28;20386;-67
2023/12/06 02:23:47;;;;;;;;;;;1.90;99.90;;;;;;5004198;28;21020;-68
2023/12/06 02:26:13;;;;;;;;;;;1.80;99.90;;;;;;5010448;28;19929;-68
2023/12/06 02:28:39;;;;;;;;;;;1.80;99.90;;;;;;4991353;28;20024;-68
2023/12/06 02:31:04;;;;;;;;;;;1.90;99.90;;;;;;4990366;28;19929;-67
2023/12/06 02:33:31;;;;;;;;;;;1.90;99.90;;;;;;5004712;28;19941;-68
2023/12/06 02:35:58;;;;;;;;;;;1.90;99.90;;;;;;4991035;28;19929;-68
2023/12/06 02:38:23;;;;;;;;;;;1.90;99.90;;;;;;4994803;28;19944;-68
2023/12/06 02:40:50;;;;;;;;;;;1.90;99.90;;;;;;5013176;28;20368;-68
2023/12/06 02:43:16;;;;;;;;;;;1.90;99.90;;;;;;5010099;28;19937;-68
2023/12/06 02:45:42;;;;;;;;;;;1.90;99.90;;;;;;4993815;28;19929;-68
2023/12/06 02:48:08;;;;;;;;;;;1.90;99.90;;;;;;5007695;28;19943;-68
2023/12/06 02:50:34;;;;;;;;;;;2.00;99.90;;;;;;4992328;28;20316;-68
2023/12/06 02:52:59;;;;;;;;;;;2.00;99.90;;;;;;5007936;28;19925;-68
2023/12/06 02:55:25;;;;;;;;;;;2.00;99.90;;;;;;4993573;28;19929;-68
2023/12/06 02:57:50;;;;;;;;;;;2.00;99.90;;;;;;4989818;28;20452;-68
2023/12/06 03:00:16;;;;;;;;;;;1.90;99.90;;;;;;5006795;28;19933;-68
2023/12/06 03:02:41;;;;;;;;;;;2.00;99.90;;;;;;5008330;28;19948;-67
2023/12/06 03:05:07;;;;;;;;;;;1.90;99.90;;;;;;4991443;28;19936;-67
2023/12/06 03:07:33;;;;;;;;;;;1.90;99.90;;;;;;4986482;28;19951;-67
2023/12/06 03:09:58;;;;;;;;;;;1.90;99.90;;;;;;4993220;28;19967;-67
2023/12/06 03:12:24;;;;;;;;;;;2.00;99.90;;;;;;4987226;28;19926;-67
2023/12/06 03:14:49;;;;;;;;;;;2.00;99.90;;;;;;4989882;28;20028;-67
2023/12/06 03:17:15;;;;;;;;;;;2.00;99.90;;;;;;5009507;28;19964;-67
2023/12/06 03:19:40;;;;;;;;;;;2.00;99.90;;;;;;4991915;28;20316;-67
2023/12/06 03:22:06;;;;;;;;;;;2.10;99.90;;;;;;4988660;28;19972;-67
2023/12/06 03:24:32;;;;;;;;;;;2.10;99.90;;;;;;5007671;28;20391;-67
2023/12/06 03:26:57;;;;;;;;;;;2.10;99.90;;;;;;5007507;28;19929;-67
2023/12/06 03:29:23;;;;;;;;;;;2.20;99.90;;;;;;5007377;28;19925;-67
2023/12/06 03:31:48;;;;;;;;;;;2.20;99.90;;;;;;5007090;28;19926;-67
2023/12/06 03:34:14;;;;;;;;;;;2.20;99.90;;;;;;5006408;28;19987;-67
2023/12/06 03:36:39;;;;;;;;;;;2.20;99.90;;;;;;4992659;28;19926;-67
2023/12/06 03:39:05;;;;;;;;;;;2.20;99.90;;;;;;5007927;28;20154;-67
2023/12/06 03:41:30;;;;;;;;;;;2.30;99.90;;;;;;5010010;28;19942;-67
2023/12/06 03:43:56;;;;;;;;;;;2.30;99.90;;;;;;4990708;28;19925;-67
2023/12/06 03:46:21;;;;;;;;;;;2.30;99.90;;;;;;5006524;28;19929;-68
2023/12/06 03:48:47;;;;;;;;;;;2.30;99.90;;;;;;4992468;28;19933;-68
2023/12/06 03:51:12;;;;;;;;;;;2.30;99.90;;;;;;4988021;28;19933;-67
2023/12/06 03:53:38;;;;;;;;;;;2.30;99.90;;;;;;4990790;28;19925;-67
2023/12/06 03:56:03;;;;;;;;;;;2.40;99.90;;;;;;4990139;28;19929;-67
2023/12/06 03:58:29;;;;;;;;;;;2.40;99.90;;;;;;4991608;28;19949;-67
2023/12/06 04:00:55;;;;;;;;;;;2.40;99.90;;;;;;5005734;28;20019;-67
2023/12/06 04:03:21;;;;;;;;;;;2.40;99.90;;;;;;4989677;28;19933;-68
2023/12/06 04:05:47;;;;;;;;;;;2.40;99.90;;;;;;5004570;28;20117;-68
2023/12/06 04:08:13;;;;;;;;;;;2.50;99.90;;;;;;5005549;28;20076;-67
2023/12/06 04:10:38;;;;;;;;;;;2.50;99.90;;;;;;4996849;28;20400;-67
2023/12/06 04:13:04;;;;;;;;;;;2.50;99.90;;;;;;4971853;28;20012;-67
2023/12/06 04:15:32;;;;;;;;;;;2.50;99.90;;;;;;4990314;28;19930;-67
2023/12/06 04:17:58;;;;;;;;;;;2.50;99.90;;;;;;4987518;28;19965;-68
2023/12/06 04:20:23;;;;;;;;;;;2.50;99.90;;;;;;4989697;28;21249;-68
2023/12/06 04:22:49;;;;;;;;;;;2.60;99.90;;;;;;5008553;28;19926;-67
2023/12/06 04:25:15;;;;;;;;;;;2.60;99.90;;;;;;5006045;28;20292;-67
2023/12/06 04:27:40;;;;;;;;;;;2.50;99.90;;;;;;4989288;28;20469;-67
2023/12/06 04:30:06;;;;;;;;;;;2.60;99.90;;;;;;4976242;28;19984;-67
2023/12/06 04:32:32;;;;;;;;;;;2.60;99.90;;;;;;5011946;28;20335;-67
2023/12/06 04:34:57;;;;;;;;;;;2.60;99.90;;;;;;5010320;28;19925;-67
2023/12/06 04:37:23;;;;;;;;;;;2.60;99.90;;;;;;5012172;28;19933;-67
2023/12/06 04:39:48;;;;;;;;;;;2.60;99.90;;;;;;5009118;28;19925;-68
2023/12/06 04:42:14;;;;;;;;;;;2.60;99.90;;;;;;4993550;28;19933;-67
2023/12/06 04:44:40;;;;;;;;;;;2.70;99.90;;;;;;4993639;28;20230;-67
2023/12/06 04:47:06;;;;;;;;;;;2.70;99.90;;;;;;4991587;28;19925;-68
2023/12/06 04:49:31;;;;;;;;;;;2.70;99.90;;;;;;4992547;28;19930;-67
2023/12/06 04:51:57;;;;;;;;;;;2.80;99.90;;;;;;5008779;28;20056;-66
2023/12/06 04:54:24;;;;;;;;;;;2.70;99.90;;;;;;5012701;28;19939;-67
2023/12/06 04:56:49;;;;;;;;;;;2.80;99.90;;;;;;5005776;28;19945;-67
2023/12/06 04:59:15;;;;;;;;;;;2.80;99.90;;;;;;4990738;28;19952;-67
2023/12/06 05:01:41;;;;;;;;;;;2.80;99.90;;;;;;5006447;28;19933;-66
2023/12/06 05:04:06;;;;;;;;;;;2.80;99.90;;;;;;4991230;28;20023;-66
2023/12/06 05:06:32;;;;;;;;;;;2.80;99.90;;;;;;4993792;28;20356;-67
2023/12/06 05:08:57;;;;;;;;;;;2.80;99.90;;;;;;4995132;28;20282;-66
2023/12/06 05:11:23;;;;;;;;;;;2.80;99.90;;;;;;4988378;28;19932;-67
2023/12/06 05:13:48;;;;;;;;;;;2.80;99.90;;;;;;4992210;28;20038;-67
2023/12/06 05:16:15;;;;;;;;;;;2.80;99.90;;;;;;5008253;28;20067;-67
2023/12/06 05:18:40;;;;;;;;;;;2.80;99.90;;;;;;5008320;28;19944;-67
2023/12/06 05:21:06;;;;;;;;;;;2.80;99.90;;;;;;5008217;28;19933;-67
2023/12/06 05:23:31;;;;;;;;;;;2.80;99.90;;;;;;5011443;28;19925;-67
2023/12/06 05:25:57;;;;;;;;;;;2.80;99.90;;;;;;4992258;28;20008;-67
2023/12/06 05:28:22;;;;;;;;;;;2.80;99.90;;;;;;4993711;28;19926;-66
2023/12/06 05:30:48;;;;;;;;;;;2.80;99.90;;;;;;4994596;28;20104;-66
2023/12/06 05:33:14;;;;;;;;;;;2.80;99.90;;;;;;5011601;28;20390;-66
2023/12/06 05:35:39;;;;;;;;;;;2.80;99.90;;;;;;5013228;28;19925;-66
2023/12/06 05:38:05;;;;;;;;;;;2.80;99.90;;;;;;4995966;28;20389;-67
2023/12/06 05:40:31;;;;;;;;;;;2.80;99.90;;;;;;5009499;28;19941;-66
2023/12/06 05:42:57;;;;;;;;;;;2.80;99.90;;;;;;4991739;28;19926;-66
2023/12/06 05:45:23;;;;;;;;;;;2.90;99.90;;;;;;5008565;28;19933;-66
2023/12/06 05:47:48;;;;;;;;;;;2.90;99.90;;;;;;5010469;28;20176;-66
2023/12/06 05:50:14;;;;;;;;;;;3.00;99.90;;;;;;5009508;28;19925;-66
2023/12/06 05:52:39;;;;;;;;;;;3.00;99.90;;;;;;4992120;28;20357;-67
2023/12/06 05:55:05;;;;;;;;;;;3.00;99.90;;;;;;4995690;28;19929;-66
2023/12/06 05:57:32;;;;;;;;;;;3.00;99.90;;;;;;4976160;28;19932;-67
2023/12/06 05:59:58;;;;;;;;;;;3.00;99.90;;;;;;4987865;28;19936;-67
2023/12/06 06:02:23;;;;;;;;;;;3.00;99.90;;;;;;4990328;28;20399;-67
2023/12/06 06:04:49;;;;;;;;;;;3.10;99.90;;;;;;4984088;28;19930;-67
2023/12/06 06:07:15;;;;;;;;;;;3.10;99.90;;;;;;4991653;28;19925;-68
2023/12/06 06:09:40;;;;;;;;;;;3.10;99.90;;;;;;4988841;28;19926;-68
2023/12/06 06:12:07;;;;;;;;;;;3.00;99.90;;;;;;4992770;28;20448;-67
2023/12/06 06:14:33;;;;;;;;;;;3.00;99.90;;;;;;4972387;28;19926;-68
2023/12/06 06:16:59;;;;;;;;;;;3.00;99.90;;;;;;4988880;28;20027;-67
2023/12/06 06:19:24;;;;;;;;;;;3.00;99.90;;;;;;5005787;28;21504;-67
2023/12/06 06:21:50;;;;;;;;;;;3.00;99.90;;;;;;5012309;28;19933;-68
2023/12/06 06:24:15;;;;;;;;;;;3.00;99.90;;;;;;5006006;28;20387;-68
2023/12/06 06:26:41;;;;;;;;;;;3.00;99.90;;;;;;5004860;28;19925;-67
2023/12/06 06:29:07;;;;;;;;;;;3.00;99.90;;;;;;5007619;28;20180;-68
2023/12/06 06:31:33;;;;;;;;;;;3.00;99.90;;;;;;5009231;28;19990;-67
2023/12/06 06:34:01;;;;;;;;;;;3.00;99.90;;;;;;4989680;28;19937;-67
2023/12/06 06:36:27;;;;;;;;;;;3.10;99.90;;;;;;5011354;28;19933;-67
2023/12/06 06:38:53;;;;;;;;;;;3.00;99.90;;;;;;5008584;28;19928;-67
2023/12/06 06:41:18;;;;;;;;;;;3.10;99.90;;;;;;5006676;28;20405;-67
2023/12/06 06:43:44;;;;;;;;;;;3.00;99.90;;;;;;5005690;28;20940;-67
2023/12/06 06:46:09;;;;;;;;;;;3.00;99.90;;;;;;5002370;28;20072;-68
2023/12/06 06:48:36;;;;;;;;;;;3.10;99.90;;;;;;5003712;28;19940;-67
2023/12/06 06:51:01;;;;;;;;;;;3.00;99.90;;;;;;5003496;28;19921;-66
2023/12/06 06:53:27;;;;;;;;;;;3.00;99.90;;;;;;5004827;28;19972;-68
2023/12/06 06:55:53;;;;;;;;;;;3.00;99.90;;;;;;5007037;28;19925;-67
2023/12/06 06:58:18;;;;;;;;;;;3.10;99.90;;;;;;5005990;28;19968;-67
2023/12/06 07:00:44;;;;;;;;;;;3.10;99.90;;;;;;5004068;28;19932;-65
2023/12/06 07:03:11;;;;;;;;;;;3.10;99.90;;;;;;5004725;28;19937;-67
2023/12/06 07:05:37;;;;;;;;;;;3.10;99.90;;;;;;4988709;28;19976;-64
2023/12/06 07:08:03;;;;;;;;;;;3.10;99.90;;;;;;4989009;28;20177;-67
2023/12/06 07:10:28;;;;;;;;;;;3.10;99.90;;;;;;4994513;28;19931;-68
2023/12/06 07:12:54;;;;;;;;;;;3.10;99.90;;;;;;4979814;28;19933;-68
2023/12/06 07:15:19;;;;;;;;;;;3.20;99.90;;;;;;4995431;28;19941;-69
2023/12/06 07:17:45;;;;;;;;;;;3.10;99.90;;;;;;5007603;28;19926;-65
2023/12/06 07:20:11;;;;;;;;;;;3.10;99.90;;;;;;4991115;28;20032;-66
2023/12/06 07:22:37;;;;;;;;;;;3.10;99.90;;;;;;5013503;28;19992;-67
2023/12/06 07:25:04;;;;;;;;;;;3.10;99.90;;;;;;5009829;28;19925;-75
2023/12/06 07:27:29;;;;;;;;;;;3.10;99.90;;;;;;5006652;28;19980;-73
2023/12/06 07:29:55;;;;;;;;;;;3.10;99.90;;;;;;4987458;28;20092;-74
2023/12/06 07:32:21;;;;;;;;;;;3.10;99.90;;;;;;5002341;28;20012;-74
2023/12/06 07:34:47;;;;;;;;;;;3.10;99.90;;;;;;5005851;28;19976;-74
2023/12/06 07:37:12;;;;;;;;;;;3.10;99.90;;;;;;5002622;28;20393;-74
2023/12/06 07:39:38;;;;;;;;;;;3.10;99.90;;;;;;4987130;28;20167;-74
2023/12/06 07:42:04;;;;;;;;;;;3.10;99.90;;;;;;4995284;28;19934;-74
2023/12/06 07:44:29;;;;;;;;;;;3.20;99.90;;;;;;4977778;28;20332;-73
2023/12/06 07:46:55;;;;;;;;;;;3.20;99.90;;;;;;4986441;28;19979;-73
2023/12/06 07:49:20;;;;;;;;;;;3.30;99.90;;;;;;5003134;28;20135;-74
2023/12/06 07:51:46;;;;;;;;;;;3.30;99.90;;;;;;4981734;28;20305;-75
2023/12/06 07:54:11;;;;;;;;;;;3.30;99.90;;;;;;4987237;28;20396;-75
2023/12/06 07:56:37;;;;;;;;;;;3.30;99.90;;;;;;4986208;28;19933;-75
2023/12/06 07:59:02;;;;;;;;;;;3.30;99.90;;;;;;4970194;28;19933;-75
2023/12/06 08:01:31;;;;;;;;;;;3.20;99.90;;;;;;4985179;28;20375;-74
2023/12/06 08:04:00;;;;;;;;;;;3.20;99.90;;;;;;5003723;28;20080;-75
2023/12/06 08:06:26;;;;;;;;;;;3.20;99.90;;;;;;4987255;28;19926;-77
2023/12/06 08:08:53;;;;;;;;;;;3.20;99.90;;;;;;4993308;28;19933;-76
2023/12/06 08:11:21;;;;;;;;;;;3.20;99.90;;;;;;5011258;28;20040;-77
2023/12/06 08:13:47;;;;;;;;;;;3.30;99.90;;;;;;4991881;28;19921;-77
2023/12/06 08:16:13;;;;;;;;;;;3.20;99.90;;;;;;4997692;28;19936;-77
2023/12/06 08:18:38;;;;;;;;;;;3.20;99.90;;;;;;5011223;28;20019;-77
2023/12/06 08:21:07;;;;;;;;;;;3.20;99.90;;;;;;5012594;28;19925;-76
2023/12/06 08:23:33;;;;;;;;;;;3.20;99.90;;;;;;4991376;28;19926;-77
2023/12/06 08:25:59;;;;;;;;;;;3.20;99.90;;;;;;5012982;28;19928;-77
2023/12/06 08:28:24;;;;;;;;;;;3.20;99.90;;;;;;5012709;28;20403;-77
2023/12/06 08:30:50;;;;;;;;;;;3.20;99.90;;;;;;4995686;28;19932;-77
2023/12/06 08:33:18;;;;;;;;;;;3.20;99.90;;;;;;4993849;28;19929;-77
2023/12/06 08:35:43;;;;;;;;;;;3.20;99.90;;;;;;4993141;28;19935;-77
2023/12/06 08:38:09;;;;;;;;;;;3.20;99.90;;;;;;4977136;28;20028;-76
2023/12/06 08:40:34;;;;;;;;;;;3.30;99.90;;;;;;4993863;28;19925;-77
2023/12/06 08:43:00;;;;;;;;;;;3.30;99.90;;;;;;5000494;28;19992;-75
2023/12/06 08:45:25;;;;;;;;;;;3.30;99.90;;;;;;4993847;28;20380;-77
2023/12/06 08:47:51;;;;;;;;;;;3.40;99.90;;;;;;4995734;28;19940;-77
2023/12/06 08:50:17;;;;;;;;;;;3.30;99.90;;;;;;5012984;28;19929;-78
2023/12/06 08:52:45;;;;;;;;;;;3.40;99.90;;;;;;4994620;28;20440;-78
2023/12/06 08:55:11;;;;;;;;;;;3.40;99.90;;;;;;4994260;28;19925;-78
2023/12/06 08:57:37;;;;;;;;;;;3.40;99.90;;;;;;5009492;28;19952;-78
2023/12/06 09:00:07;;;;;;;;;;;3.40;99.90;;;;;;4996783;28;19935;-78
2023/12/06 09:02:34;;;;;;;;;;;3.40;99.90;;;;;;4989572;28;19932;-77
2023/12/06 09:04:59;;;;;;;;;;;3.40;99.90;;;;;;4996393;28;19941;-77
2023/12/06 09:07:25;;;;;;;;;;;3.40;99.90;;;;;;4991531;28;19952;-77
2023/12/06 09:09:50;;;;;;;;;;;3.40;99.90;;;;;;4990503;28;19932;-77
2023/12/06 09:12:16;;;;;;;;;;;3.40;99.90;;;;;;4977855;28;20020;-79
2023/12/06 09:14:41;;;;;;;;;;;3.40;99.90;;;;;;5010005;28;20020;-80
2023/12/06 09:17:07;;;;;;;;;;;3.50;99.90;;;;;;5010017;28;19929;-80
2023/12/06 09:19:32;;;;;;;;;;;3.50;99.90;;;;;;5012984;28;20384;-80
2023/12/06 09:21:58;;;;;;;;;;;3.50;99.90;;;;;;5008130;28;19932;-80
2023/12/06 09:24:23;;;;;;;;;;;3.50;99.90;;;;;;5001039;28;19926;-80
2023/12/06 09:26:50;;;;;;;;;;;3.50;99.90;;;;;;5012899;28;19940;-80
2023/12/06 09:29:17;;;;;;;;;;;3.60;99.90;;;;;;5000308;28;19926;-80
2023/12/06 09:31:43;;;;;;;;;;;3.50;99.90;;;;;;4994700;28;19929;-81
2023/12/06 09:34:08;;;;;;;;;;;3.50;99.90;;;;;;4995751;28;19929;-80
2023/12/06 09:36:34;;;;;;;;;;;3.60;99.90;;;;;;5013193;28;19995;-80
2023/12/06 09:39:00;;;;;;;;;;;3.60;99.90;;;;;;5003641;28;19933;-79
2023/12/06 09:41:29;;;;;;;;;;;3.60;99.90;;;;;;4992199;28;19971;-81
2023/12/06 09:43:55;;;;;;;;;;;3.70;99.90;;;;;;4995076;28;20100;-81
2023/12/06 09:46:21;;;;;;;;;;;3.70;99.90;;;;;;4976656;28;20072;-82
2023/12/06 09:48:47;;;;;;;;;;;3.70;99.90;;;;;;4993489;28;20392;-80
2023/12/06 09:51:12;;;;;;;;;;;3.80;99.90;;;;;;5011619;28;20501;-81
2023/12/06 09:53:38;;;;;;;;;;;3.80;99.90;;;;;;4989895;28;19925;-81
2023/12/06 09:56:04;;;;;;;;;;;3.80;99.90;;;;;;4993796;28;20037;-81
2023/12/06 09:58:30;;;;;;;;;;;3.80;99.90;;;;;;5011790;28;19925;-81
2023/12/06 10:00:57;;;;;;;;;;;3.80;99.90;;;;;;4991745;28;19925;-82
2023/12/06 10:03:23;;;;;;;;;;;3.90;99.90;;;;;;4977867;28;19960;-81
2023/12/06 10:05:56;;;;;;;;;;;3.80;99.90;;;;;;4996216;28;19937;-79
2023/12/06 10:08:21;;;;;;;;;;;3.90;99.90;;;;;;4995434;28;19933;-82
2023/12/06 10:10:47;;;;;;;;;;;3.90;99.90;;;;;;4994461;28;20305;-81
2023/12/06 10:13:12;;;;;;;;;;;3.90;99.90;;;;;;4995114;28;20594;-82
2023/12/06 10:15:38;;;;;;;;;;;3.90;99.90;;;;;;4999363;28;20161;-82
2023/12/06 10:18:04;;;;;;;;;;;3.90;99.90;;;;;;5011745;28;19932;-82
2023/12/06 10:20:30;;;;;;;;;;;3.90;99.90;;;;;;5005440;28;19976;-82
2023/12/06 10:22:55;;;;;;;;;;;3.90;99.90;;;;;;5013364;28;19929;-82
2023/12/06 10:25:21;;;;;;;;;;;4.00;99.90;;;;;;5008394;28;19925;-79
2023/12/06 10:27:46;;;;;;;;;;;3.90;99.90;;;;;;4992330;28;19929;-82
2023/12/06 10:30:18;;;;;;;;;;;4.00;99.90;;;;;;5012311;28;20427;-82
2023/12/06 10:32:45;;;;;;;;;;;3.90;99.90;;;;;;4975951;28;19936;-82
2023/12/06 10:35:10;;;;;;;;;;;3.90;99.90;;;;;;4992780;28;20400;-82
2023/12/06 10:37:36;;;;;;;;;;;4.00;99.90;;;;;;4995446;28;19933;-82
2023/12/06 10:40:12;;;;;;;;;;;3.90;99.90;;;;;;4988574;28;20226;-82
2023/12/06 10:42:38;;;;;;;;;;;4.00;99.90;;;;;;5012345;28;20404;-82
2023/12/06 10:45:04;;;;;;;;;;;4.00;99.90;;;;;;5010241;28;20380;-82
2023/12/06 10:47:30;;;;;;;;;;;4.00;99.90;;;;;;4990978;28;19925;-82
2023/12/06 10:49:56;;;;;;;;;;;4.00;99.90;;;;;;4992962;28;20282;-81
2023/12/06 10:52:22;;;;;;;;;;;4.00;99.90;;;;;;4991168;28;20011;-84
2023/12/06 10:54:49;;;;;;;;;;;4.10;99.90;;;;;;4985065;28;19948;-83
2023/12/06 10:57:15;;;;;;;;;;;4.10;99.90;;;;;;4980003;28;19933;-83
2023/12/06 10:59:41;;;;;;;;;;;4.10;99.90;;;;;;4992554;28;20331;-84
2023/12/06 11:02:08;;;;;;;;;;;4.10;99.90;;;;;;4993046;28;19929;-83
2023/12/06 11:04:35;;;;;;;;;;;4.20;99.90;;;;;;4992128;28;20045;-83
2023/12/06 11:07:09;;;;;;;;;;;4.10;99.90;;;;;;4979997;28;20419;-82
2023/12/06 11:09:38;;;;;;;;;;;4.20;99.90;;;;;;4997057;28;20040;-82
2023/12/06 11:12:07;;;;;;;;;;;4.20;99.90;;;;;;4997820;28;20023;-82
2023/12/06 11:14:32;;;;;;;;;;;4.20;99.90;;;;;;4972790;28;19934;-83
2023/12/06 11:17:10;;;;;;;;;;;4.30;99.90;;;;;;4993056;28;20020;-82
2023/12/06 11:19:36;;;;;;;;;;;4.30;99.90;;;;;;5007649;28;19925;-82
2023/12/06 11:22:03;;;;;;;;;;;4.30;99.90;;;;;;5014154;28;19944;-81
2023/12/06 11:24:28;;;;;;;;;;;4.30;99.90;;;;;;5008885;28;20308;-83
2023/12/06 11:26:54;;;;;;;;;;;4.30;99.90;;;;;;5013997;28;19926;-82
2023/12/06 11:29:21;;;;;;;;;;;4.40;99.90;;;;;;4981043;28;20134;-79
2023/12/06 11:31:51;;;;;;;;;;;4.40;99.90;;;;;;4981647;28;20284;-80
2023/12/06 11:34:17;;;;;;;;;;;4.40;99.90;;;;;;4975595;28;20012;-80
2023/12/06 11:36:42;;;;;;;;;;;4.50;99.90;;;;;;4989796;28;20019;-79
2023/12/06 11:39:17;;;;;;;;;;;4.40;99.90;;;;;;4992115;28;19925;-80
2023/12/06 11:41:50;;;;;;;;;;;4.40;99.90;;;;;;4989300;28;19979;-79
2023/12/06 11:44:16;;;;;;;;;;;4.40;99.90;;;;;;5010510;28;19980;-80
2023/12/06 11:46:49;;;;;;;;;;;4.40;99.90;;;;;;5008658;28;19969;-80
2023/12/06 11:49:14;;;;;;;;;;;4.50;99.90;;;;;;5009913;28;19955;-80
2023/12/06 11:51:40;;;;;;;;;;;4.40;99.90;;;;;;4991730;28;19921;-80
2023/12/06 11:54:06;;;;;;;;;;;4.50;99.90;;;;;;4991417;28;20401;-80
2023/12/06 11:56:31;;;;;;;;;;;4.40;99.90;;;;;;4985086;28;19933;-79
2023/12/06 11:58:57;;;;;;;;;;;4.40;99.90;;;;;;4988271;28;19926;-78
2023/12/06 12:01:23;;;;;;;;;;;4.40;99.90;;;;;;5007604;28;20045;-78
2023/12/06 12:03:49;;;;;;;;;;;4.40;99.90;;;;;;4990048;28;20413;-77
2023/12/06 12:06:15;;;;;;;;;;;4.40;99.90;;;;;;4984192;28;19934;-77
2023/12/06 12:08:42;;;;;;;;;;;4.40;99.90;;;;;;4988301;28;19929;-76
2023/12/06 12:11:08;;;;;;;;;;;4.40;99.90;;;;;;4981919;28;19934;-77
2023/12/06 12:13:36;;;;;;;;;;;4.40;99.90;;;;;;4981366;28;19925;-75
2023/12/06 12:16:02;;;;;;;;;;;4.30;99.90;;;;;;4980923;28;19933;-75
2023/12/06 12:18:28;;;;;;;;;;;4.40;99.90;;;;;;5011745;28;19978;-75
2023/12/06 12:20:58;;;;;;;;;;;4.40;99.90;;;;;;5007386;28;19987;-72
2023/12/06 12:23:24;;;;;;;;;;;4.40;99.90;;;;;;4990637;28;19926;-76
2023/12/06 12:25:50;;;;;;;;;;;4.40;99.90;;;;;;4989890;28;19926;-75
2023/12/06 12:28:17;;;;;;;;;;;4.50;99.90;;;;;;4987881;28;19933;-75
2023/12/06 12:30:43;;;;;;;;;;;4.40;99.90;;;;;;4968694;28;19987;-76
2023/12/06 12:33:09;;;;;;;;;;;4.50;99.90;;;;;;4987088;28;19934;-75
2023/12/06 12:35:35;;;;;;;;;;;4.50;99.90;;;;;;4986876;28;20318;-75
2023/12/06 12:38:01;;;;;;;;;;;4.50;99.90;;;;;;5005194;28;20038;-74
2023/12/06 12:40:26;;;;;;;;;;;4.50;99.90;;;;;;4987728;28;19929;-73
2023/12/06 12:42:52;;;;;;;;;;;4.50;99.90;;;;;;5000139;28;19934;-73
2023/12/06 12:45:18;;;;;;;;;;;4.40;99.90;;;;;;5002772;28;19930;-74
2023/12/06 12:47:43;;;;;;;;;;;4.40;99.90;;;;;;4987651;28;19946;-73
2023/12/06 12:50:09;;;;;;;;;;;4.40;99.90;;;;;;4979156;28;19929;-73
2023/12/06 12:52:37;;;;;;;;;;;4.40;99.90;;;;;;4993773;28;19933;-72
2023/12/06 12:55:04;;;;;;;;;;;4.40;99.90;;;;;;4985602;28;19956;-70
2023/12/06 12:57:34;;;;;;;;;;;4.30;99.90;;;;;;4989109;28;19979;-74
2023/12/06 12:59:59;;;;;;;;;;;4.30;99.90;;;;;;4985341;28;19926;-73
2023/12/06 13:02:25;;;;;;;;;;;4.30;99.90;;;;;;4989136;28;19933;-73
2023/12/06 13:04:50;;;;;;;;;;;4.30;99.90;;;;;;4983110;28;19925;-73
2023/12/06 13:07:16;;;;;;;;;;;4.30;99.90;;;;;;5007626;28;19933;-72
2023/12/06 13:09:41;;;;;;;;;;;4.30;99.90;;;;;;4984428;28;20023;-73
2023/12/06 13:12:07;;;;;;;;;;;4.30;99.90;;;;;;4989506;28;19975;-73
2023/12/06 13:14:33;;;;;;;;;;;4.30;99.90;;;;;;4993022;28;20230;-73
2023/12/06 13:16:59;;;;;;;;;;;4.30;99.90;;;;;;4987606;28;20486;-72
2023/12/06 13:19:25;;;;;;;;;;;4.40;99.90;;;;;;5002035;28;19977;-74
2023/12/06 13:21:50;;;;;;;;;;;4.40;99.90;;;;;;5003371;28;19925;-73
2023/12/06 13:24:16;;;;;;;;;;;4.40;99.90;;;;;;4972045;28;19934;-73
2023/12/06 13:26:42;;;;;;;;;;;4.40;99.90;;;;;;4989893;28;20574;-74
2023/12/06 13:29:08;;;;;;;;;;;4.40;99.90;;;;;;4971125;28;19933;-73
2023/12/06 13:31:36;;;;;;;;;;;4.40;99.90;;;;;;4989397;28;19944;-73
2023/12/06 13:34:01;;;;;;;;;;;4.40;99.90;;;;;;4985451;28;19933;-74
2023/12/06 13:36:27;;;;;;;;;;;4.40;99.90;;;;;;4990400;28;19940;-73
2023/12/06 13:38:52;;;;;;;;;;;4.40;99.90;;;;;;5009525;28;19925;-74
2023/12/06 13:41:18;;;;;;;;;;;4.40;99.90;;;;;;4984228;28;19979;-75
2023/12/06 13:43:43;;;;;;;;;;;4.40;99.90;;;;;;4978534;28;19968;-77
2023/12/06 13:46:09;;;;;;;;;;;4.40;99.90;;;;;;5003973;28;19933;-77
2023/12/06 13:48:34;;;;;;;;;;;4.40;99.90;;;;;;5002242;28;20398;-76
2023/12/06 13:51:00;;;;;;;;;;;4.40;99.90;;;;;;5005379;28;19933;-76
2023/12/06 13:53:26;;;;;;;;;;;4.40;99.90;;;;;;5005597;28;20402;-76
2023/12/06 13:55:51;;;;;;;;;;;4.40;99.90;;;;;;4991655;28;19926;-76
2023/12/06 13:58:20;;;;;;;;;;;4.50;99.90;;;;;;4990410;28;20010;-75
2023/12/06 14:00:46;;;;;;;;;;;4.50;99.90;;;;;;4985786;28;20340;-74
2023/12/06 14:03:12;;;;;;;;;;;4.40;99.90;;;;;;4980947;28;19926;-74
2023/12/06 14:05:38;;;;;;;;;;;4.50;99.90;;;;;;5007107;28;20412;-75
2023/12/06 14:08:04;;;;;;;;;;;4.40;99.90;;;;;;4987219;28;19929;-74
2023/12/06 14:10:29;;;;;;;;;;;4.40;99.90;;;;;;5006765;28;20313;-75
2023/12/06 14:12:55;;;;;;;;;;;4.40;99.90;;;;;;4987847;28;19936;-75
2023/12/06 14:15:21;;;;;;;;;;;4.40;99.90;;;;;;5008689;28;20408;-75
2023/12/06 14:17:47;;;;;;;;;;;4.40;99.90;;;;;;4991718;28;20012;-75
2023/12/06 14:20:12;;;;;;;;;;;4.40;99.90;;;;;;5005345;28;19930;-75
2023/12/06 14:22:39;;;;;;;;;;;4.40;99.90;;;;;;4990861;28;19949;-75